sensor_id;sensor_type;location;lat;lon;timestamp;P1;durP1;ratioP1;P2;durP2;ratioP2
18738;SDS011;9498;51.862;19.460;2022-11-15T00:02:09;153.50;;;40.43;;
18738;SDS011;9498;51.862;19.460;2022-11-15T00:04:36;156.88;;;42.08;;
18738;SDS011;9498;51.862;19.460;2022-11-15T00:07:03;151.20;;;42.53;;
18738;SDS011;9498;51.862;19.460;2022-11-15T00:09:31;151.13;;;39.53;;
18738;SDS011;9498;51.862;19.460;2022-11-15T00:11:59;132.97;;;38.87;;
18738;SDS011;9498;51.862;19.460;2022-11-15T00:14:26;163.47;;;42.10;;
18738;SDS011;9498;51.862;19.460;2022-11-15T00:16:54;146.80;;;38.80;;
18738;SDS011;9498;51.862;19.460;2022-11-15T00:19:21;160.07;;;40.17;;
18738;SDS011;9498;51.862;19.460;2022-11-15T00:21:48;155.77;;;40.47;;
18738;SDS011;9498;51.862;19.460;2022-11-15T00:24:15;155.83;;;38.30;;
18738;SDS011;9498;51.862;19.460;2022-11-15T00:26:42;144.20;;;41.30;;
18738;SDS011;9498;51.862;19.460;2022-11-15T00:29:11;157.27;;;40.17;;
18738;SDS011;9498;51.862;19.460;2022-11-15T00:31:38;157.37;;;40.27;;
18738;SDS011;9498;51.862;19.460;2022-11-15T00:34:05;142.87;;;39.67;;
18738;SDS011;9498;51.862;19.460;2022-11-15T00:36:33;169.73;;;43.60;;
18738;SDS011;9498;51.862;19.460;2022-11-15T00:39:00;152.77;;;39.03;;
18738;SDS011;9498;51.862;19.460;2022-11-15T00:41:27;141.57;;;37.30;;
18738;SDS011;9498;51.862;19.460;2022-11-15T00:43:55;145.00;;;37.57;;
18738;SDS011;9498;51.862;19.460;2022-11-15T00:46:23;152.13;;;40.73;;
18738;SDS011;9498;51.862;19.460;2022-11-15T00:48:50;155.47;;;36.70;;
18738;SDS011;9498;51.862;19.460;2022-11-15T00:51:18;134.80;;;36.70;;
18738;SDS011;9498;51.862;19.460;2022-11-15T00:53:45;130.57;;;35.53;;
18738;SDS011;9498;51.862;19.460;2022-11-15T00:56:12;145.07;;;37.57;;
18738;SDS011;9498;51.862;19.460;2022-11-15T00:58:40;145.00;;;36.47;;
18738;SDS011;9498;51.862;19.460;2022-11-15T01:01:08;157.57;;;38.73;;
18738;SDS011;9498;51.862;19.460;2022-11-15T01:03:37;150.37;;;37.17;;
18738;SDS011;9498;51.862;19.460;2022-11-15T01:06:05;150.97;;;38.30;;
18738;SDS011;9498;51.862;19.460;2022-11-15T01:08:33;177.95;;;46.13;;
18738;SDS011;9498;51.862;19.460;2022-11-15T01:11:01;171.03;;;40.90;;
18738;SDS011;9498;51.862;19.460;2022-11-15T01:13:29;153.63;;;38.97;;
18738;SDS011;9498;51.862;19.460;2022-11-15T01:15:57;150.97;;;39.00;;
18738;SDS011;9498;51.862;19.460;2022-11-15T01:18:24;159.63;;;38.40;;
18738;SDS011;9498;51.862;19.460;2022-11-15T01:20:53;158.23;;;39.67;;
18738;SDS011;9498;51.862;19.460;2022-11-15T01:23:20;147.83;;;37.03;;
18738;SDS011;9498;51.862;19.460;2022-11-15T01:25:47;159.83;;;38.70;;
18738;SDS011;9498;51.862;19.460;2022-11-15T01:28:15;162.10;;;39.00;;
18738;SDS011;9498;51.862;19.460;2022-11-15T01:30:42;163.37;;;40.07;;
18738;SDS011;9498;51.862;19.460;2022-11-15T01:33:09;164.33;;;39.57;;
18738;SDS011;9498;51.862;19.460;2022-11-15T01:35:38;154.77;;;36.67;;
18738;SDS011;9498;51.862;19.460;2022-11-15T01:38:07;151.80;;;38.33;;
18738;SDS011;9498;51.862;19.460;2022-11-15T01:40:34;175.13;;;46.40;;
18738;SDS011;9498;51.862;19.460;2022-11-15T01:45:44;149.90;;;38.17;;
18738;SDS011;9498;51.862;19.460;2022-11-15T01:48:13;147.30;;;37.70;;
18738;SDS011;9498;51.862;19.460;2022-11-15T01:50:40;148.07;;;38.03;;
18738;SDS011;9498;51.862;19.460;2022-11-15T01:53:09;164.03;;;38.33;;
18738;SDS011;9498;51.862;19.460;2022-11-15T01:55:36;154.93;;;37.73;;
18738;SDS011;9498;51.862;19.460;2022-11-15T01:58:04;148.57;;;37.83;;
18738;SDS011;9498;51.862;19.460;2022-11-15T02:00:32;141.33;;;36.03;;
18738;SDS011;9498;51.862;19.460;2022-11-15T02:03:00;149.93;;;37.97;;
18738;SDS011;9498;51.862;19.460;2022-11-15T02:05:28;146.80;;;37.03;;
18738;SDS011;9498;51.862;19.460;2022-11-15T02:07:56;142.37;;;37.00;;
18738;SDS011;9498;51.862;19.460;2022-11-15T02:10:25;138.77;;;35.87;;
18738;SDS011;9498;51.862;19.460;2022-11-15T02:12:52;165.48;;;44.10;;
18738;SDS011;9498;51.862;19.460;2022-11-15T02:15:20;145.70;;;36.73;;
18738;SDS011;9498;51.862;19.460;2022-11-15T02:23:31;122.57;;;34.63;;
18738;SDS011;9498;51.862;19.460;2022-11-15T02:26:11;131.23;;;33.83;;
18738;SDS011;9498;51.862;19.460;2022-11-15T02:28:52;137.90;;;35.57;;
18738;SDS011;9498;51.862;19.460;2022-11-15T02:31:25;126.10;;;35.17;;
18738;SDS011;9498;51.862;19.460;2022-11-15T02:33:57;140.03;;;35.53;;
18738;SDS011;9498;51.862;19.460;2022-11-15T02:36:30;131.50;;;34.93;;
18738;SDS011;9498;51.862;19.460;2022-11-15T02:39:03;129.97;;;33.77;;
18738;SDS011;9498;51.862;19.460;2022-11-15T02:41:35;143.47;;;35.23;;
18738;SDS011;9498;51.862;19.460;2022-11-15T02:44:07;149.18;;;39.63;;
18738;SDS011;9498;51.862;19.460;2022-11-15T02:46:36;137.87;;;35.57;;
18738;SDS011;9498;51.862;19.460;2022-11-15T02:49:21;139.00;;;35.97;;
18738;SDS011;9498;51.862;19.460;2022-11-15T02:51:50;129.80;;;32.70;;
18738;SDS011;9498;51.862;19.460;2022-11-15T02:54:19;122.90;;;32.67;;
18738;SDS011;9498;51.862;19.460;2022-11-15T02:56:47;121.40;;;35.03;;
18738;SDS011;9498;51.862;19.460;2022-11-15T02:59:22;130.97;;;34.60;;
18738;SDS011;9498;51.862;19.460;2022-11-15T03:01:55;126.80;;;32.87;;
18738;SDS011;9498;51.862;19.460;2022-11-15T03:04:27;112.33;;;31.03;;
18738;SDS011;9498;51.862;19.460;2022-11-15T03:06:58;124.20;;;32.80;;
18738;SDS011;9498;51.862;19.460;2022-11-15T03:09:29;128.87;;;32.97;;
18738;SDS011;9498;51.862;19.460;2022-11-15T03:12:01;110.73;;;31.30;;
18738;SDS011;9498;51.862;19.460;2022-11-15T03:14:32;122.97;;;33.00;;
18738;SDS011;9498;51.862;19.460;2022-11-15T03:17:02;115.23;;;31.50;;
18738;SDS011;9498;51.862;19.460;2022-11-15T03:19:33;112.63;;;32.13;;
18738;SDS011;9498;51.862;19.460;2022-11-15T03:22:02;114.70;;;30.73;;
18738;SDS011;9498;51.862;19.460;2022-11-15T03:24:30;117.80;;;31.77;;
18738;SDS011;9498;51.862;19.460;2022-11-15T03:26:58;126.33;;;32.07;;
18738;SDS011;9498;51.862;19.460;2022-11-15T03:29:27;126.73;;;33.43;;
18738;SDS011;9498;51.862;19.460;2022-11-15T03:31:56;119.33;;;31.43;;
18738;SDS011;9498;51.862;19.460;2022-11-15T03:34:27;125.63;;;32.33;;
18738;SDS011;9498;51.862;19.460;2022-11-15T03:36:56;117.07;;;30.40;;
18738;SDS011;9498;51.862;19.460;2022-11-15T03:39:23;105.00;;;30.23;;
18738;SDS011;9498;51.862;19.460;2022-11-15T03:41:53;121.10;;;33.03;;
18738;SDS011;9498;51.862;19.460;2022-11-15T03:44:27;114.80;;;31.20;;
18738;SDS011;9498;51.862;19.460;2022-11-15T03:46:57;135.10;;;35.30;;
18738;SDS011;9498;51.862;19.460;2022-11-15T03:49:29;123.73;;;34.40;;
18738;SDS011;9498;51.862;19.460;2022-11-15T03:51:58;119.43;;;32.67;;
18738;SDS011;9498;51.862;19.460;2022-11-15T03:54:25;107.60;;;30.57;;
18738;SDS011;9498;51.862;19.460;2022-11-15T03:56:53;111.93;;;31.37;;
18738;SDS011;9498;51.862;19.460;2022-11-15T03:59:20;115.10;;;31.07;;
18738;SDS011;9498;51.862;19.460;2022-11-15T04:01:48;111.60;;;31.27;;
18738;SDS011;9498;51.862;19.460;2022-11-15T04:04:15;106.73;;;31.37;;
18738;SDS011;9498;51.862;19.460;2022-11-15T04:06:43;113.23;;;30.70;;
18738;SDS011;9498;51.862;19.460;2022-11-15T04:09:11;119.27;;;32.07;;
18738;SDS011;9498;51.862;19.460;2022-11-15T04:11:38;110.03;;;30.00;;
18738;SDS011;9498;51.862;19.460;2022-11-15T04:14:05;103.10;;;31.90;;
18738;SDS011;9498;51.862;19.460;2022-11-15T04:16:33;115.30;;;30.60;;
18738;SDS011;9498;51.862;19.460;2022-11-15T04:19:00;112.27;;;29.33;;
18738;SDS011;9498;51.862;19.460;2022-11-15T04:21:46;109.40;;;30.53;;
18738;SDS011;9498;51.862;19.460;2022-11-15T04:24:31;104.10;;;29.53;;
18738;SDS011;9498;51.862;19.460;2022-11-15T04:26:58;108.90;;;29.20;;
18738;SDS011;9498;51.862;19.460;2022-11-15T04:29:26;106.07;;;29.30;;
18738;SDS011;9498;51.862;19.460;2022-11-15T04:32:02;96.10;;;28.37;;
18738;SDS011;9498;51.862;19.460;2022-11-15T04:34:29;98.77;;;27.80;;
18738;SDS011;9498;51.862;19.460;2022-11-15T04:36:58;95.43;;;27.40;;
18738;SDS011;9498;51.862;19.460;2022-11-15T04:39:38;97.50;;;28.10;;
18738;SDS011;9498;51.862;19.460;2022-11-15T04:42:05;94.03;;;27.43;;
18738;SDS011;9498;51.862;19.460;2022-11-15T04:44:33;108.93;;;29.50;;
18738;SDS011;9498;51.862;19.460;2022-11-15T04:47:00;98.17;;;28.60;;
18738;SDS011;9498;51.862;19.460;2022-11-15T04:49:27;97.50;;;29.23;;
18738;SDS011;9498;51.862;19.460;2022-11-15T04:51:54;113.60;;;33.47;;
18738;SDS011;9498;51.862;19.460;2022-11-15T04:54:23;107.67;;;29.77;;
18738;SDS011;9498;51.862;19.460;2022-11-15T04:56:50;91.37;;;28.17;;
18738;SDS011;9498;51.862;19.460;2022-11-15T04:59:17;107.40;;;27.17;;
18738;SDS011;9498;51.862;19.460;2022-11-15T05:01:45;102.53;;;29.20;;
18738;SDS011;9498;51.862;19.460;2022-11-15T05:04:12;97.87;;;28.77;;
18738;SDS011;9498;51.862;19.460;2022-11-15T05:06:44;109.67;;;29.20;;
18738;SDS011;9498;51.862;19.460;2022-11-15T05:09:11;97.17;;;27.90;;
18738;SDS011;9498;51.862;19.460;2022-11-15T05:11:40;109.03;;;30.63;;
18738;SDS011;9498;51.862;19.460;2022-11-15T05:14:08;108.07;;;29.73;;
18738;SDS011;9498;51.862;19.460;2022-11-15T05:16:35;125.60;;;36.03;;
18738;SDS011;9498;51.862;19.460;2022-11-15T05:19:02;102.37;;;31.20;;
18738;SDS011;9498;51.862;19.460;2022-11-15T05:21:30;95.33;;;29.43;;
18738;SDS011;9498;51.862;19.460;2022-11-15T05:23:57;96.73;;;28.43;;
18738;SDS011;9498;51.862;19.460;2022-11-15T05:26:24;99.13;;;27.73;;
18738;SDS011;9498;51.862;19.460;2022-11-15T05:28:54;93.77;;;27.23;;
18738;SDS011;9498;51.862;19.460;2022-11-15T05:31:21;91.63;;;27.20;;
18738;SDS011;9498;51.862;19.460;2022-11-15T05:33:49;107.43;;;32.60;;
18738;SDS011;9498;51.862;19.460;2022-11-15T05:36:17;101.47;;;29.30;;
18738;SDS011;9498;51.862;19.460;2022-11-15T05:38:45;99.90;;;28.20;;
18738;SDS011;9498;51.862;19.460;2022-11-15T05:41:13;99.50;;;28.33;;
18738;SDS011;9498;51.862;19.460;2022-11-15T05:43:41;95.57;;;28.43;;
18738;SDS011;9498;51.862;19.460;2022-11-15T05:46:10;104.53;;;29.30;;
18738;SDS011;9498;51.862;19.460;2022-11-15T05:48:37;111.67;;;30.60;;
18738;SDS011;9498;51.862;19.460;2022-11-15T05:51:07;87.17;;;25.40;;
18738;SDS011;9498;51.862;19.460;2022-11-15T05:53:34;92.10;;;27.23;;
18738;SDS011;9498;51.862;19.460;2022-11-15T05:56:02;94.03;;;27.90;;
18738;SDS011;9498;51.862;19.460;2022-11-15T05:58:30;106.10;;;27.93;;
18738;SDS011;9498;51.862;19.460;2022-11-15T06:00:57;91.73;;;27.33;;
18738;SDS011;9498;51.862;19.460;2022-11-15T06:03:26;113.30;;;33.00;;
18738;SDS011;9498;51.862;19.460;2022-11-15T06:09:33;104.83;;;29.97;;
18738;SDS011;9498;51.862;19.460;2022-11-15T06:12:00;97.17;;;28.77;;
18738;SDS011;9498;51.862;19.460;2022-11-15T06:14:27;101.10;;;28.47;;
18738;SDS011;9498;51.862;19.460;2022-11-15T06:16:55;102.37;;;28.20;;
18738;SDS011;9498;51.862;19.460;2022-11-15T06:19:23;103.90;;;29.27;;
18738;SDS011;9498;51.862;19.460;2022-11-15T06:21:51;93.37;;;28.83;;
18738;SDS011;9498;51.862;19.460;2022-11-15T06:24:18;96.83;;;27.57;;
18738;SDS011;9498;51.862;19.460;2022-11-15T06:26:45;93.43;;;27.10;;
18738;SDS011;9498;51.862;19.460;2022-11-15T06:29:12;88.73;;;26.30;;
18738;SDS011;9498;51.862;19.460;2022-11-15T06:31:40;104.13;;;28.73;;
18738;SDS011;9498;51.862;19.460;2022-11-15T06:34:07;98.73;;;27.10;;
18738;SDS011;9498;51.862;19.460;2022-11-15T06:36:36;111.13;;;30.93;;
18738;SDS011;9498;51.862;19.460;2022-11-15T06:39:03;110.63;;;33.30;;
18738;SDS011;9498;51.862;19.460;2022-11-15T06:41:33;100.90;;;30.87;;
18738;SDS011;9498;51.862;19.460;2022-11-15T06:44:00;89.50;;;29.47;;
18738;SDS011;9498;51.862;19.460;2022-11-15T06:46:28;98.13;;;28.73;;
18738;SDS011;9498;51.862;19.460;2022-11-15T06:48:55;100.23;;;28.57;;
18738;SDS011;9498;51.862;19.460;2022-11-15T06:51:22;102.07;;;28.10;;
18738;SDS011;9498;51.862;19.460;2022-11-15T06:53:51;89.07;;;27.20;;
18738;SDS011;9498;51.862;19.460;2022-11-15T06:56:18;88.60;;;26.33;;
18738;SDS011;9498;51.862;19.460;2022-11-15T06:58:45;88.73;;;27.90;;
18738;SDS011;9498;51.862;19.460;2022-11-15T07:01:12;93.90;;;27.57;;
18738;SDS011;9498;51.862;19.460;2022-11-15T07:03:40;95.70;;;28.07;;
18738;SDS011;9498;51.862;19.460;2022-11-15T07:06:08;95.30;;;28.00;;
18738;SDS011;9498;51.862;19.460;2022-11-15T07:08:35;90.37;;;26.80;;
18738;SDS011;9498;51.862;19.460;2022-11-15T07:11:05;90.03;;;28.57;;
18738;SDS011;9498;51.862;19.460;2022-11-15T07:13:33;95.17;;;27.47;;
18738;SDS011;9498;51.862;19.460;2022-11-15T07:16:01;100.77;;;28.43;;
18738;SDS011;9498;51.862;19.460;2022-11-15T07:18:29;89.50;;;28.13;;
18738;SDS011;9498;51.862;19.460;2022-11-15T07:20:59;98.83;;;28.57;;
18738;SDS011;9498;51.862;19.460;2022-11-15T07:23:27;95.87;;;28.60;;
18738;SDS011;9498;51.862;19.460;2022-11-15T07:25:55;94.33;;;29.20;;
18738;SDS011;9498;51.862;19.460;2022-11-15T07:28:24;93.47;;;29.40;;
18738;SDS011;9498;51.862;19.460;2022-11-15T07:30:51;92.67;;;27.70;;
18738;SDS011;9498;51.862;19.460;2022-11-15T07:33:19;93.87;;;27.40;;
18738;SDS011;9498;51.862;19.460;2022-11-15T07:35:46;89.83;;;28.43;;
18738;SDS011;9498;51.862;19.460;2022-11-15T07:38:14;103.93;;;30.53;;
18738;SDS011;9498;51.862;19.460;2022-11-15T07:40:44;92.70;;;28.40;;
18738;SDS011;9498;51.862;19.460;2022-11-15T07:43:12;97.47;;;29.53;;
18738;SDS011;9498;51.862;19.460;2022-11-15T07:45:44;105.33;;;30.30;;
18738;SDS011;9498;51.862;19.460;2022-11-15T07:48:11;99.90;;;29.57;;
18738;SDS011;9498;51.862;19.460;2022-11-15T07:50:40;104.03;;;30.97;;
18738;SDS011;9498;51.862;19.460;2022-11-15T07:53:07;106.17;;;31.40;;
18738;SDS011;9498;51.862;19.460;2022-11-15T07:55:35;97.07;;;29.93;;
18738;SDS011;9498;51.862;19.460;2022-11-15T07:58:03;95.10;;;31.00;;
18738;SDS011;9498;51.862;19.460;2022-11-15T08:00:31;99.43;;;31.37;;
18738;SDS011;9498;51.862;19.460;2022-11-15T08:03:04;104.77;;;30.93;;
18738;SDS011;9498;51.862;19.460;2022-11-15T08:05:31;102.07;;;30.63;;
18738;SDS011;9498;51.862;19.460;2022-11-15T08:07:59;104.43;;;32.47;;
18738;SDS011;9498;51.862;19.460;2022-11-15T08:10:26;99.03;;;31.40;;
18738;SDS011;9498;51.862;19.460;2022-11-15T08:12:57;103.40;;;33.50;;
18738;SDS011;9498;51.862;19.460;2022-11-15T08:15:25;101.60;;;30.73;;
18738;SDS011;9498;51.862;19.460;2022-11-15T08:17:53;93.33;;;30.77;;
18738;SDS011;9498;51.862;19.460;2022-11-15T08:20:22;105.83;;;32.87;;
18738;SDS011;9498;51.862;19.460;2022-11-15T08:22:49;112.20;;;35.53;;
18738;SDS011;9498;51.862;19.460;2022-11-15T08:25:16;112.97;;;33.93;;
18738;SDS011;9498;51.862;19.460;2022-11-15T08:27:44;106.20;;;33.50;;
18738;SDS011;9498;51.862;19.460;2022-11-15T08:30:11;110.23;;;36.17;;
18738;SDS011;9498;51.862;19.460;2022-11-15T08:32:41;114.50;;;35.93;;
18738;SDS011;9498;51.862;19.460;2022-11-15T08:35:08;116.70;;;35.27;;
18738;SDS011;9498;51.862;19.460;2022-11-15T08:37:37;118.63;;;36.00;;
18738;SDS011;9498;51.862;19.460;2022-11-15T08:40:04;115.40;;;36.83;;
18738;SDS011;9498;51.862;19.460;2022-11-15T08:42:32;114.93;;;36.77;;
18738;SDS011;9498;51.862;19.460;2022-11-15T08:45:00;108.87;;;35.67;;
18738;SDS011;9498;51.862;19.460;2022-11-15T08:47:27;102.57;;;34.97;;
18738;SDS011;9498;51.862;19.460;2022-11-15T08:49:55;118.33;;;37.20;;
18738;SDS011;9498;51.862;19.460;2022-11-15T08:52:22;114.60;;;38.17;;
18738;SDS011;9498;51.862;19.460;2022-11-15T08:54:51;106.47;;;36.57;;
18738;SDS011;9498;51.862;19.460;2022-11-15T08:57:18;107.13;;;36.33;;
18738;SDS011;9498;51.862;19.460;2022-11-15T08:59:45;112.33;;;37.70;;
18738;SDS011;9498;51.862;19.460;2022-11-15T09:02:13;100.00;;;36.13;;
18738;SDS011;9498;51.862;19.460;2022-11-15T09:04:40;106.23;;;34.77;;
18738;SDS011;9498;51.862;19.460;2022-11-15T09:07:07;94.67;;;33.80;;
18738;SDS011;9498;51.862;19.460;2022-11-15T09:09:35;93.97;;;33.93;;
18738;SDS011;9498;51.862;19.460;2022-11-15T09:12:04;94.40;;;33.63;;
18738;SDS011;9498;51.862;19.460;2022-11-15T09:14:31;94.57;;;33.73;;
18738;SDS011;9498;51.862;19.460;2022-11-15T09:16:58;98.27;;;35.13;;
18738;SDS011;9498;51.862;19.460;2022-11-15T09:19:25;92.07;;;32.97;;
18738;SDS011;9498;51.862;19.460;2022-11-15T09:21:52;79.90;;;31.80;;
18738;SDS011;9498;51.862;19.460;2022-11-15T09:24:20;87.00;;;31.03;;
18738;SDS011;9498;51.862;19.460;2022-11-15T09:26:49;92.97;;;31.47;;
18738;SDS011;9498;51.862;19.460;2022-11-15T09:29:17;85.77;;;30.27;;
18738;SDS011;9498;51.862;19.460;2022-11-15T09:31:45;74.30;;;29.20;;
18738;SDS011;9498;51.862;19.460;2022-11-15T09:34:12;75.00;;;29.57;;
18738;SDS011;9498;51.862;19.460;2022-11-15T09:36:39;73.37;;;27.77;;
18738;SDS011;9498;51.862;19.460;2022-11-15T09:39:06;69.87;;;26.77;;
18738;SDS011;9498;51.862;19.460;2022-11-15T09:41:38;80.27;;;28.57;;
18738;SDS011;9498;51.862;19.460;2022-11-15T09:44:16;74.60;;;28.00;;
18738;SDS011;9498;51.862;19.460;2022-11-15T09:46:49;63.40;;;26.20;;
18738;SDS011;9498;51.862;19.460;2022-11-15T09:49:21;74.80;;;27.80;;
18738;SDS011;9498;51.862;19.460;2022-11-15T09:51:50;63.60;;;25.77;;
18738;SDS011;9498;51.862;19.460;2022-11-15T09:54:27;68.13;;;27.13;;
18738;SDS011;9498;51.862;19.460;2022-11-15T09:56:55;61.17;;;25.43;;
18738;SDS011;9498;51.862;19.460;2022-11-15T09:59:27;60.00;;;26.27;;
18738;SDS011;9498;51.862;19.460;2022-11-15T10:02:03;61.67;;;25.20;;
18738;SDS011;9498;51.862;19.460;2022-11-15T10:04:35;69.37;;;25.57;;
18738;SDS011;9498;51.862;19.460;2022-11-15T10:07:04;60.53;;;24.83;;
18738;SDS011;9498;51.862;19.460;2022-11-15T10:09:34;68.00;;;25.87;;
18738;SDS011;9498;51.862;19.460;2022-11-15T10:12:03;59.13;;;25.37;;
18738;SDS011;9498;51.862;19.460;2022-11-15T10:14:30;68.00;;;26.30;;
18738;SDS011;9498;51.862;19.460;2022-11-15T10:20:14;63.00;;;25.23;;
18738;SDS011;9498;51.862;19.460;2022-11-15T10:22:45;54.53;;;23.40;;
18738;SDS011;9498;51.862;19.460;2022-11-15T10:25:17;57.70;;;23.50;;
18738;SDS011;9498;51.862;19.460;2022-11-15T10:27:46;56.93;;;23.20;;
18738;SDS011;9498;51.862;19.460;2022-11-15T10:30:16;56.07;;;23.47;;
18738;SDS011;9498;51.862;19.460;2022-11-15T10:32:44;58.43;;;23.00;;
18738;SDS011;9498;51.862;19.460;2022-11-15T10:35:24;52.03;;;23.23;;
18738;SDS011;9498;51.862;19.460;2022-11-15T10:37:52;55.87;;;23.50;;
18738;SDS011;9498;51.862;19.460;2022-11-15T10:40:30;55.13;;;22.93;;
18738;SDS011;9498;51.862;19.460;2022-11-15T10:43:04;51.10;;;21.93;;
18738;SDS011;9498;51.862;19.460;2022-11-15T10:45:32;55.73;;;23.60;;
18738;SDS011;9498;51.862;19.460;2022-11-15T10:48:18;47.30;;;22.37;;
18738;SDS011;9498;51.862;19.460;2022-11-15T10:50:48;51.00;;;23.10;;
18738;SDS011;9498;51.862;19.460;2022-11-15T10:53:17;50.23;;;22.33;;
18738;SDS011;9498;51.862;19.460;2022-11-15T10:55:48;52.40;;;22.33;;
18738;SDS011;9498;51.862;19.460;2022-11-15T10:58:20;56.20;;;23.10;;
18738;SDS011;9498;51.862;19.460;2022-11-15T11:00:48;46.90;;;22.23;;
18738;SDS011;9498;51.862;19.460;2022-11-15T11:03:26;45.97;;;20.63;;
18738;SDS011;9498;51.862;19.460;2022-11-15T11:06:04;56.03;;;23.00;;
18738;SDS011;9498;51.862;19.460;2022-11-15T11:08:32;52.10;;;22.63;;
18738;SDS011;9498;51.862;19.460;2022-11-15T11:11:00;49.50;;;22.77;;
18738;SDS011;9498;51.862;19.460;2022-11-15T11:13:27;48.83;;;22.43;;
18738;SDS011;9498;51.862;19.460;2022-11-15T11:15:56;51.90;;;22.87;;
18738;SDS011;9498;51.862;19.460;2022-11-15T11:18:27;58.73;;;24.17;;
18738;SDS011;9498;51.862;19.460;2022-11-15T11:20:57;51.20;;;22.07;;
18738;SDS011;9498;51.862;19.460;2022-11-15T11:23:33;52.73;;;23.33;;
18738;SDS011;9498;51.862;19.460;2022-11-15T11:26:04;54.03;;;24.53;;
18738;SDS011;9498;51.862;19.460;2022-11-15T11:28:37;50.30;;;22.77;;
18738;SDS011;9498;51.862;19.460;2022-11-15T11:31:10;54.60;;;23.30;;
18738;SDS011;9498;51.862;19.460;2022-11-15T11:33:42;56.13;;;23.63;;
18738;SDS011;9498;51.862;19.460;2022-11-15T11:36:17;51.50;;;23.33;;
18738;SDS011;9498;51.862;19.460;2022-11-15T11:38:53;60.97;;;24.90;;
18738;SDS011;9498;51.862;19.460;2022-11-15T11:44:24;53.57;;;22.67;;
18738;SDS011;9498;51.862;19.460;2022-11-15T11:46:55;59.90;;;24.73;;
18738;SDS011;9498;51.862;19.460;2022-11-15T11:49:25;56.33;;;24.93;;
18738;SDS011;9498;51.862;19.460;2022-11-15T11:51:54;61.37;;;25.97;;
18738;SDS011;9498;51.862;19.460;2022-11-15T11:54:32;52.37;;;25.37;;
18738;SDS011;9498;51.862;19.460;2022-11-15T11:57:02;55.77;;;25.33;;
18738;SDS011;9498;51.862;19.460;2022-11-15T11:59:50;60.07;;;24.60;;
18738;SDS011;9498;51.862;19.460;2022-11-15T12:02:20;56.83;;;23.93;;
18738;SDS011;9498;51.862;19.460;2022-11-15T12:04:52;58.43;;;24.87;;
18738;SDS011;9498;51.862;19.460;2022-11-15T12:07:23;55.67;;;24.13;;
18738;SDS011;9498;51.862;19.460;2022-11-15T12:09:53;51.20;;;23.67;;
18738;SDS011;9498;51.862;19.460;2022-11-15T12:12:25;50.90;;;22.70;;
18738;SDS011;9498;51.862;19.460;2022-11-15T12:14:55;51.00;;;23.70;;
18738;SDS011;9498;51.862;19.460;2022-11-15T12:17:23;49.10;;;22.23;;
18738;SDS011;9498;51.862;19.460;2022-11-15T12:19:51;52.93;;;22.50;;
18738;SDS011;9498;51.862;19.460;2022-11-15T12:22:20;54.37;;;22.70;;
18738;SDS011;9498;51.862;19.460;2022-11-15T12:24:48;57.03;;;24.03;;
18738;SDS011;9498;51.862;19.460;2022-11-15T12:27:20;55.47;;;24.10;;
18738;SDS011;9498;51.862;19.460;2022-11-15T12:29:52;46.73;;;22.00;;
18738;SDS011;9498;51.862;19.460;2022-11-15T12:32:24;52.50;;;22.60;;
18738;SDS011;9498;51.862;19.460;2022-11-15T12:34:52;53.80;;;22.57;;
18738;SDS011;9498;51.862;19.460;2022-11-15T12:40:27;53.40;;;22.80;;
18738;SDS011;9498;51.862;19.460;2022-11-15T12:43:00;47.47;;;22.00;;
18738;SDS011;9498;51.862;19.460;2022-11-15T12:45:28;47.03;;;21.73;;
18738;SDS011;9498;51.862;19.460;2022-11-15T12:47:56;51.03;;;22.37;;
18738;SDS011;9498;51.862;19.460;2022-11-15T12:50:54;57.27;;;23.10;;
18738;SDS011;9498;51.862;19.460;2022-11-15T12:53:26;49.73;;;23.33;;
18738;SDS011;9498;51.862;19.460;2022-11-15T12:56:08;52.27;;;22.43;;
18738;SDS011;9498;51.862;19.460;2022-11-15T12:58:43;45.80;;;22.03;;
18738;SDS011;9498;51.862;19.460;2022-11-15T13:01:25;49.37;;;21.97;;
18738;SDS011;9498;51.862;19.460;2022-11-15T13:04:07;51.03;;;22.30;;
18738;SDS011;9498;51.862;19.460;2022-11-15T13:06:38;48.40;;;21.50;;
18738;SDS011;9498;51.862;19.460;2022-11-15T13:11:48;52.43;;;22.03;;
18738;SDS011;9498;51.862;19.460;2022-11-15T13:14:39;50.10;;;23.30;;
18738;SDS011;9498;51.862;19.460;2022-11-15T13:17:19;54.80;;;23.30;;
18738;SDS011;9498;51.862;19.460;2022-11-15T13:19:52;49.50;;;22.33;;
18738;SDS011;9498;51.862;19.460;2022-11-15T13:22:20;56.10;;;23.83;;
18738;SDS011;9498;51.862;19.460;2022-11-15T13:25:11;54.40;;;23.53;;
18738;SDS011;9498;51.862;19.460;2022-11-15T13:27:44;53.30;;;23.63;;
18738;SDS011;9498;51.862;19.460;2022-11-15T13:30:14;57.67;;;24.60;;
18738;SDS011;9498;51.862;19.460;2022-11-15T13:32:42;65.57;;;26.87;;
18738;SDS011;9498;51.862;19.460;2022-11-15T13:35:15;62.87;;;26.77;;
18738;SDS011;9498;51.862;19.460;2022-11-15T13:37:45;59.67;;;26.07;;
18738;SDS011;9498;51.862;19.460;2022-11-15T13:40:18;59.80;;;26.70;;
18738;SDS011;9498;51.862;19.460;2022-11-15T13:42:46;62.57;;;25.40;;
18738;SDS011;9498;51.862;19.460;2022-11-15T13:45:17;61.50;;;26.17;;
18738;SDS011;9498;51.862;19.460;2022-11-15T13:47:44;60.77;;;26.93;;
18738;SDS011;9498;51.862;19.460;2022-11-15T13:50:12;64.23;;;27.70;;
18738;SDS011;9498;51.862;19.460;2022-11-15T13:52:40;64.47;;;26.67;;
18738;SDS011;9498;51.862;19.460;2022-11-15T13:55:10;63.17;;;27.90;;
18738;SDS011;9498;51.862;19.460;2022-11-15T13:57:39;68.20;;;27.60;;
18738;SDS011;9498;51.862;19.460;2022-11-15T14:02:52;61.10;;;25.67;;
18738;SDS011;9498;51.862;19.460;2022-11-15T14:05:20;69.23;;;27.73;;
18738;SDS011;9498;51.862;19.460;2022-11-15T14:07:52;65.33;;;26.60;;
18738;SDS011;9498;51.862;19.460;2022-11-15T14:10:24;59.93;;;24.93;;
18738;SDS011;9498;51.862;19.460;2022-11-15T14:12:51;63.57;;;25.57;;
18738;SDS011;9498;51.862;19.460;2022-11-15T14:15:24;60.67;;;26.17;;
18738;SDS011;9498;51.862;19.460;2022-11-15T14:17:53;65.40;;;26.63;;
18738;SDS011;9498;51.862;19.460;2022-11-15T14:20:27;66.23;;;28.20;;
18738;SDS011;9498;51.862;19.460;2022-11-15T14:22:56;62.93;;;28.13;;
18738;SDS011;9498;51.862;19.460;2022-11-15T14:25:24;68.70;;;28.57;;
18738;SDS011;9498;51.862;19.460;2022-11-15T14:28:08;68.37;;;26.97;;
18738;SDS011;9498;51.862;19.460;2022-11-15T14:30:36;68.33;;;27.60;;
18738;SDS011;9498;51.862;19.460;2022-11-15T14:33:13;68.20;;;27.27;;
18738;SDS011;9498;51.862;19.460;2022-11-15T14:35:44;69.47;;;28.50;;
18738;SDS011;9498;51.862;19.460;2022-11-15T14:38:11;78.63;;;31.43;;
18738;SDS011;9498;51.862;19.460;2022-11-15T14:40:41;70.80;;;27.50;;
18738;SDS011;9498;51.862;19.460;2022-11-15T14:43:09;66.33;;;27.00;;
18738;SDS011;9498;51.862;19.460;2022-11-15T14:45:37;70.13;;;27.90;;
18738;SDS011;9498;51.862;19.460;2022-11-15T14:48:04;63.57;;;26.63;;
18738;SDS011;9498;51.862;19.460;2022-11-15T14:50:33;63.57;;;24.90;;
18738;SDS011;9498;51.862;19.460;2022-11-15T14:53:01;60.80;;;23.30;;
18738;SDS011;9498;51.862;19.460;2022-11-15T14:55:29;67.67;;;27.57;;
18738;SDS011;9498;51.862;19.460;2022-11-15T14:57:57;64.23;;;27.07;;